Time;durP1;ratioP1;P1;durP2;ratioP2;P2;SDS_P1;SDS_P2;PMS_P1;PMS_P2;Temp;Humidity;BMP_temperature;BMP_pressure;BME280_temperature;BME280_humidity;BME280_pressure;Samples;Min_cycle;Max_cycle;Signal;HPM_P1;HPM_P2
2022/09/06 00:01:39;;;;;;;4.43;4.03;;;;;;;18.06;100.00;100080.59;5093020;28;20675;-78
2022/09/06 00:04:05;;;;;;;4.70;3.83;;;;;;;18.05;100.00;100085.03;5092852;28;20223;-79
2022/09/06 00:06:32;;;;;;;6.30;4.47;;;;;;;18.07;100.00;100087.53;5093129;28;20223;-79
2022/09/06 00:08:59;;;;;;;4.47;4.10;;;;;;;18.02;100.00;100085.19;5093084;28;20294;-79
2022/09/06 00:11:26;;;;;;;4.63;4.32;;;;;;;18.04;100.00;100091.22;5093146;28;20202;-79
2022/09/06 00:13:55;;;;;;;4.97;4.47;;;;;;;17.98;100.00;100094.13;5093163;28;20203;-79
2022/09/06 00:16:23;;;;;;;6.27;4.33;;;;;;;17.97;100.00;100097.69;5080688;28;20311;-79
2022/09/06 00:18:53;;;;;;;4.43;4.07;;;;;;;17.90;100.00;100092.81;5072499;28;20192;-79
2022/09/06 00:21:22;;;;;;;5.90;4.80;;;;;;;17.83;100.00;100088.81;5072711;28;20243;-79
2022/09/06 00:23:49;;;;;;;4.77;4.37;;;;;;;17.84;100.00;100088.69;5072333;28;20255;-79
2022/09/06 00:26:16;;;;;;;7.40;4.50;;;;;;;17.83;100.00;100091.44;5072275;28;20230;-79
2022/09/06 00:28:43;;;;;;;5.28;4.50;;;;;;;17.73;100.00;100093.63;5071897;28;20218;-79
2022/09/06 00:31:14;;;;;;;5.57;4.73;;;;;;;17.72;100.00;100091.91;5072097;28;20200;-78
2022/09/06 00:33:41;;;;;;;4.40;4.10;;;;;;;17.73;100.00;100096.25;5072181;28;20292;-79
2022/09/06 00:36:09;;;;;;;4.70;4.30;;;;;;;17.74;100.00;100100.59;5071998;28;20200;-78
2022/09/06 00:38:36;;;;;;;6.53;4.57;;;;;;;17.73;100.00;100094.47;5071878;28;20202;-79
2022/09/06 00:41:03;;;;;;;4.60;4.20;;;;;;;17.75;100.00;100108.38;5072395;28;20200;-79
2022/09/06 00:43:30;;;;;;;4.73;4.33;;;;;;;17.54;100.00;100056.03;5072112;28;20552;-79
2022/09/06 00:45:57;;;;;;;4.50;4.10;;;;;;;17.71;100.00;100079.75;5071880;28;20224;-78
2022/09/06 00:48:26;;;;;;;5.63;4.10;;;;;;;17.91;100.00;100102.41;5072291;28;20195;-79
2022/09/06 00:50:56;;;;;;;4.37;3.97;;;;;;;17.92;100.00;100102.31;5071952;28;20208;-80
2022/09/06 00:53:24;;;;;;;5.37;4.63;;;;;;;17.89;100.00;100099.84;5072368;28;20590;-80
2022/09/06 00:55:51;;;;;;;5.88;4.28;;;;;;;17.94;100.00;100103.09;5072442;28;20266;-78
2022/09/06 00:58:18;;;;;;;5.47;3.97;;;;;;;17.93;100.00;100103.19;5071892;28;20628;-78
2022/09/06 01:00:45;;;;;;;6.47;4.47;;;;;;;17.94;100.00;100097.84;5071993;28;20199;-79
2022/09/06 01:03:13;;;;;;;5.43;4.03;;;;;;;18.01;100.00;100107.13;5072209;28;20591;-80
2022/09/06 01:05:54;;;;;;;4.40;4.00;;;;;;;17.90;100.00;100095.44;5071809;28;20562;-81
2022/09/06 01:08:29;;;;;;;4.13;3.80;;;;;;;17.86;100.00;100099.97;5072122;28;20206;-80
2022/09/06 01:11:22;;;;;;;4.27;3.97;;;;;;;17.86;100.00;100101.75;5071884;28;20206;-79
2022/09/06 01:13:59;;;;;;;4.90;3.70;;;;;;;17.75;100.00;100073.41;5071613;28;20210;-80
2022/09/06 01:16:34;;;;;;;6.83;3.97;;;;;;;17.87;100.00;100096.44;5071677;28;20227;-79
2022/09/06 01:19:28;;;;;;;4.20;3.90;;;;;;;17.84;100.00;100093.94;5071598;28;20722;-79
2022/09/06 01:22:09;;;;;;;6.57;4.27;;;;;;;17.87;100.00;100101.69;5071112;28;20692;-79
2022/09/06 01:25:00;;;;;;;4.33;3.97;;;;;;;17.90;100.00;100095.44;5071205;28;20698;-80
2022/09/06 01:27:54;;;;;;;5.73;4.30;;;;;;;17.86;100.00;100104.38;5071421;28;20220;-79
2022/09/06 01:30:21;;;;;;;4.70;4.27;;;;;;;17.86;100.00;100107.84;5071216;28;20202;-79
2022/09/06 01:32:56;;;;;;;4.80;4.40;;;;;;;17.85;100.00;100097.44;5070663;28;20200;-76
2022/09/06 01:35:31;;;;;;;6.27;3.93;;;;;;;17.90;100.00;100095.44;5070714;28;20199;-76
2022/09/06 01:38:00;;;;;;;4.32;3.92;;;;;;;17.70;100.00;100059.66;5070850;28;20200;-76
2022/09/06 01:40:27;;;;;;;4.13;3.75;;;;;;;17.91;100.00;100084.00;5070871;28;20222;-76
2022/09/06 01:42:57;;;;;;;6.67;4.33;;;;;;;17.90;100.00;100085.78;5070335;28;20195;-76
2022/09/06 01:45:38;;;;;;;4.18;3.88;;;;;;;17.88;100.00;100079.75;5070649;28;20212;-76
2022/09/06 01:48:11;;;;;;;4.20;3.58;;;;;;;17.89;100.00;100080.59;5070491;28;20216;-76
2022/09/06 01:50:53;;;;;;;7.13;4.18;;;;;;;17.84;100.00;100067.69;5070632;28;20591;-76
2022/09/06 01:53:41;;;;;;;5.97;4.55;;;;;;;17.87;100.00;100069.31;5070199;28;20199;-76
2022/09/06 01:56:17;;;;;;;4.20;3.90;;;;;;;17.85;100.00;100065.91;5070192;28;20206;-76
2022/09/06 01:59:11;;;;;;;4.65;4.18;;;;;;;17.87;100.00;100059.66;5069901;28;20286;-77
2022/09/06 02:01:42;;;;;;;4.53;3.73;;;;;;;17.89;100.00;100063.06;5070391;28;20227;-78
2022/09/06 02:04:18;;;;;;;4.97;4.27;;;;;;;17.63;100.00;100018.88;5070378;28;20196;-80
2022/09/06 02:06:50;;;;;;;4.73;4.30;;;;;;;17.70;100.00;100030.78;5070168;28;20219;-80
2022/09/06 02:09:21;;;;;;;7.17;4.23;;;;;;;17.85;100.00;100061.50;5069895;28;20199;-79
2022/09/06 02:11:51;;;;;;;4.90;4.40;;;;;;;17.78;100.00;100052.25;5070580;28;20200;-79
2022/09/06 02:14:25;;;;;;;5.20;4.27;;;;;;;17.63;100.00;100047.75;5070149;28;20230;-80
2022/09/06 02:16:54;;;;;;;6.47;4.33;;;;;;;17.64;100.00;100045.06;5070160;28;20236;-80
2022/09/06 02:19:27;;;;;;;4.60;4.00;;;;;;;17.72;100.00;100053.38;5070090;28;20584;-79
2022/09/06 02:21:56;;;;;;;4.53;4.23;;;;;;;17.68;100.00;100044.00;5070121;28;20674;-79
2022/09/06 02:24:30;;;;;;;6.20;4.63;;;;;;;17.77;100.00;100042.69;5070135;28;20686;-78
2022/09/06 02:26:57;;;;;;;4.80;3.87;;;;;;;17.66;100.00;100045.84;5070033;28;20608;-79
2022/09/06 02:29:26;;;;;;;4.57;4.00;;;;;;;17.68;100.00;100054.50;5070111;28;20198;-79
2022/09/06 02:31:58;;;;;;;6.53;4.40;;;;;;;17.57;100.00;100056.75;5070104;28;20203;-79
2022/09/06 02:34:25;;;;;;;5.37;4.30;;;;;;;17.55;100.00;100060.38;5070256;28;20199;-78
2022/09/06 02:36:52;;;;;;;6.70;4.40;;;;;;;17.46;100.00;100061.69;5070291;28;20287;-80
2022/09/06 02:39:19;;;;;;;9.83;4.50;;;;;;;17.44;100.00;100055.66;5071440;28;20639;-80
2022/09/06 02:41:47;;;;;;;7.30;4.23;;;;;;;17.36;100.00;100056.03;5070760;28;20580;-80
2022/09/06 02:44:15;;;;;;;5.40;4.13;;;;;;;17.28;100.00;100050.28;5070192;28;20640;-80
2022/09/06 02:46:43;;;;;;;6.17;4.53;;;;;;;17.30;100.00;100051.06;5069806;28;20230;-78
2022/09/06 02:49:10;;;;;;;4.90;4.60;;;;;;;17.30;100.00;100045.81;5069873;28;20196;-78
2022/09/06 02:51:38;;;;;;;5.87;5.37;;;;;;;17.30;100.00;100039.72;5069936;28;20206;-79
2022/09/06 02:54:05;;;;;;;5.57;5.07;;;;;;;17.21;100.00;100035.75;5069698;28;20207;-79
2022/09/06 02:56:35;;;;;;;6.33;5.50;;;;;;;17.28;100.00;100049.41;5069716;28;20191;-77
2022/09/06 02:59:02;;;;;;;5.57;5.17;;;;;;;17.21;100.00;100051.50;5069752;28;20226;-78
2022/09/06 03:01:29;;;;;;;7.47;5.43;;;;;;;17.21;100.00;100059.38;5069391;28;20196;-77
2022/09/06 03:03:57;;;;;;;6.50;5.53;;;;;;;17.15;100.00;100057.06;5069321;28;20206;-76
2022/09/06 03:06:24;;;;;;;6.53;5.97;;;;;;;17.14;100.00;100059.75;5069103;28;20200;-76
2022/09/06 03:08:51;;;;;;;8.40;5.83;;;;;;;17.12;100.00;100065.06;5069014;28;20196;-76
2022/09/06 03:11:18;;;;;;;8.47;5.60;;;;;;;17.16;100.00;100066.59;5069141;28;20204;-76
2022/09/06 03:13:45;;;;;;;6.17;5.57;;;;;;;17.18;100.00;100070.00;5069038;28;20200;-77
2022/09/06 03:16:12;;;;;;;9.87;6.30;;;;;;;17.17;100.00;100068.28;5068986;28;20239;-77
2022/09/06 03:18:39;;;;;;;7.93;5.87;;;;;;;17.11;100.00;100065.13;5069042;28;20194;-77
2022/09/06 03:21:08;;;;;;;7.50;5.60;;;;;;;17.06;100.00;100070.56;5072012;28;20200;-76
2022/09/06 03:23:35;;;;;;;10.43;5.83;;;;;;;17.07;100.00;100082.75;5073193;28;20199;-77
2022/09/06 03:26:02;;;;;;;6.47;5.60;;;;;;;16.99;100.00;100064.78;5072988;28;20253;-76
2022/09/06 03:28:28;;;;;;;5.20;4.80;;;;;;;16.96;100.00;100072.78;5073179;28;20703;-75
2022/09/06 03:30:55;;;;;;;9.00;5.27;;;;;;;16.76;100.00;100046.63;5072898;28;20583;-77
2022/09/06 03:33:22;;;;;;;5.67;5.07;;;;;;;16.92;100.00;100078.25;5073006;28;20192;-76
2022/09/06 03:35:51;;;;;;;5.67;5.27;;;;;;;16.94;100.00;100076.38;5072694;28;20230;-76
2022/09/06 03:38:20;;;;;;;5.83;5.33;;;;;;;16.89;100.00;100067.88;5073275;28;20207;-76
2022/09/06 03:40:47;;;;;;;6.17;5.60;;;;;;;16.67;100.00;100053.13;5072557;28;20295;-76
2022/09/06 03:43:15;;;;;;;6.27;5.63;;;;;;;16.84;100.00;100077.72;5072596;28;20192;-76
2022/09/06 03:45:45;;;;;;;7.73;5.80;;;;;;;16.76;100.00;100075.47;5072651;28;20606;-75
2022/09/06 03:48:12;;;;;;;11.03;5.80;;;;;;;16.65;100.00;100070.69;5072500;28;20220;-76
2022/09/06 03:50:43;;;;;;;6.57;6.17;;;;;;;16.74;100.00;100082.53;5072492;28;20243;-75
2022/09/06 03:53:09;;;;;;;6.70;6.20;;;;;;;16.70;100.00;100078.38;5072293;28;20200;-75
2022/09/06 03:55:38;;;;;;;10.83;7.20;;;;;;;16.61;100.00;100076.09;5072608;28;20575;-74
2022/09/06 03:58:05;;;;;;;10.83;6.40;;;;;;;16.66;100.00;100082.88;5072864;28;20199;-74
2022/09/06 04:00:32;;;;;;;10.40;6.60;;;;;;;16.50;100.00;100058.22;5072484;28;20218;-73
2022/09/06 04:03:00;;;;;;;7.23;6.47;;;;;;;16.40;100.00;100037.75;5072213;28;20191;-74
2022/09/06 04:05:27;;;;;;;8.20;6.80;;;;;;;16.78;100.00;100085.88;5072153;28;20196;-74
2022/09/06 04:07:53;;;;;;;8.03;6.50;;;;;;;16.75;100.00;100094.72;5071708;28;20224;-74
2022/09/06 04:10:20;;;;;;;7.77;6.67;;;;;;;16.74;100.00;100093.03;5072216;28;20298;-74
2022/09/06 04:12:49;;;;;;;7.50;6.27;;;;;;;16.79;100.00;100100.69;5071776;28;20206;-74
2022/09/06 04:15:16;;;;;;;8.33;7.50;;;;;;;16.79;100.00;100104.16;5071823;28;20236;-74
2022/09/06 04:17:45;;;;;;;8.03;7.27;;;;;;;16.74;100.00;100094.78;5071738;28;20196;-77
2022/09/06 04:20:12;;;;;;;7.70;7.00;;;;;;;16.89;100.00;100113.31;5071815;28;20192;-77
2022/09/06 04:22:39;;;;;;;8.27;7.57;;;;;;;16.92;100.00;100110.56;5072101;28;20200;-77
2022/09/06 04:25:07;;;;;;;10.77;7.10;;;;;;;16.95;100.00;100109.56;5073090;28;20195;-73
2022/09/06 04:27:34;;;;;;;7.80;7.17;;;;;;;16.99;100.00;100111.97;5071300;28;20224;-76
2022/09/06 04:30:03;;;;;;;7.37;6.53;;;;;;;16.99;100.00;100103.25;5064903;28;20219;-76
2022/09/06 04:32:31;;;;;;;10.30;7.30;;;;;;;17.00;100.00;100097.94;5057796;28;20269;-75
2022/09/06 04:34:58;;;;;;;8.13;6.93;;;;;;;17.16;100.00;100103.31;5059885;28;20210;-75
2022/09/06 04:37:25;;;;;;;7.00;6.40;;;;;;;17.30;100.00;100105.31;5061344;28;20188;-75
2022/09/06 04:39:52;;;;;;;7.40;6.80;;;;;;;17.64;100.00;100073.06;5060438;28;20652;-74
2022/09/06 04:42:19;;;;;;;9.73;6.77;;;;;;;18.91;100.00;100107.72;5059527;28;20196;-75
2022/09/06 04:44:46;;;;;;;6.80;6.22;;;;;;;20.07;100.00;100110.00;5060169;28;20604;-74
2022/09/06 04:47:17;;;;;;;11.35;5.75;;;;;;;20.87;97.95;100109.56;5060754;28;20258;-75
2022/09/06 04:49:44;;;;;;;11.27;6.53;;;;;;;21.00;96.15;100110.47;5061829;28;20204;-75
2022/09/06 04:52:11;;;;;;;7.25;6.47;;;;;;;21.06;94.76;100108.41;5059004;28;20189;-75
2022/09/06 04:54:38;;;;;;;7.30;6.53;;;;;;;21.09;94.63;100108.22;5067687;28;20305;-75
2022/09/06 04:57:06;;;;;;;14.00;7.18;;;;;;;21.76;91.27;100114.50;5062319;28;20204;-76
2022/09/06 04:59:33;;;;;;;9.55;6.93;;;;;;;23.04;84.35;100111.94;5060297;28;20162;-77
2022/09/06 05:01:59;;;;;;;8.35;6.45;;;;;;;24.24;76.54;100119.03;5060408;28;20649;-78
2022/09/06 05:04:28;;;;;;;6.88;6.28;;;;;;;25.06;nan;100112.63;5066424;28;20214;-76
2022/09/06 05:07:01;;;;;;;9.25;6.95;;;;;;;25.44;68.93;100082.97;5070775;28;20196;-75
2022/09/06 05:09:28;;;;;;;6.78;6.18;;;;;;;25.60;68.64;100115.38;5071372;28;20602;-77
2022/09/06 05:11:55;;;;;;;8.30;6.18;;;;;;;26.04;66.28;100074.44;5067587;28;25120;-81
2022/09/06 05:14:22;;;;;;;6.20;5.72;;;;;;;26.94;63.21;100117.34;5071061;28;25065;-75
2022/09/06 05:16:50;;;;;;;9.10;6.68;;;;;;;27.88;59.67;100118.69;5070790;28;20234;-75
2022/09/06 05:19:17;;;;;;;6.63;5.57;;;;;;;28.99;55.90;100116.31;5067345;28;20204;-74
2022/09/06 05:21:46;;;;;;;7.38;6.40;;;;;;;29.42;53.87;100114.84;5061304;28;20591;-76
2022/09/06 05:24:13;;;;;;;7.65;6.20;;;;;;;29.32;53.70;100103.34;5070466;28;20598;-75
2022/09/06 05:26:40;;;;;;;8.18;5.80;;;;;;;29.13;53.59;100112.28;5066503;28;20234;-75
2022/09/06 05:29:07;;;;;;;6.20;5.68;;;;;;;29.35;53.78;100125.25;5070527;28;20567;-74
2022/09/06 05:31:35;;;;;;;5.50;5.10;;;;;;;29.37;52.92;100127.78;5070940;28;20211;-75
2022/09/06 05:34:02;;;;;;;5.05;4.50;;;;;;;29.42;52.88;100120.19;5070580;28;20318;-75
2022/09/06 05:36:30;;;;;;;4.78;4.50;;;;;;;29.88;51.20;100116.50;5070644;28;20196;-75
2022/09/06 05:38:59;;;;;;;4.82;4.43;;;;;;;30.94;49.01;100121.66;5070525;28;20192;-74
2022/09/06 05:41:26;;;;;;;4.32;4.03;;;;;;;31.23;47.45;100115.94;5070411;28;20200;-75
2022/09/06 05:43:54;;;;;;;6.15;4.30;;;;;;;31.29;46.61;100098.34;5070523;28;20702;-75
2022/09/06 05:46:21;;;;;;;5.53;4.85;;;;;;;30.59;48.34;100106.53;5070421;28;20223;-75
2022/09/06 05:48:56;;;;;;;6.20;4.47;;;;;;;31.11;47.03;100122.59;5070190;28;20267;-75
2022/09/06 05:51:24;;;;;;;4.55;4.35;;;;;;;31.26;46.63;100129.06;5070967;28;20203;-73
2022/09/06 05:53:51;;;;;;;5.28;4.80;;;;;;;30.98;47.37;100120.34;5070515;28;20200;-75
2022/09/06 05:56:19;;;;;;;6.50;4.50;;;;;;;30.52;48.33;100110.00;5071001;28;20198;-75
2022/09/06 05:58:46;;;;;;;8.60;4.43;;;;;;;31.00;47.99;100112.97;5071703;28;20196;-74
2022/09/06 06:01:18;;;;;;;6.90;5.65;;;;;;;31.63;46.41;100117.94;5071881;28;20214;-76
2022/09/06 06:03:51;;;;;;;8.88;4.70;;;;;;;31.88;44.92;100070.47;5070850;28;20200;-74
2022/09/06 06:06:18;;;;;;;4.95;4.45;;;;;;;32.49;43.79;100112.13;5070353;28;20199;-75
2022/09/06 06:08:45;;;;;;;4.82;3.83;;;;;;;32.40;43.35;100110.44;5070139;28;21037;-75
2022/09/06 06:11:13;;;;;;;4.60;4.13;;;;;;;32.58;42.70;100086.06;5071296;28;20196;-74
2022/09/06 06:13:42;;;;;;;6.30;4.30;;;;;;;32.93;42.43;100117.06;5070816;28;20202;-75
2022/09/06 06:16:10;;;;;;;6.47;4.68;;;;;;;33.16;41.30;100108.06;5070277;28;20239;-75
2022/09/06 06:18:37;;;;;;;6.00;4.10;;;;;;;32.92;41.94;100105.47;5069737;28;20694;-75
2022/09/06 06:21:09;;;;;;;4.97;4.60;;;;;;;33.45;40.27;100090.44;5069979;28;20203;-75
2022/09/06 06:23:36;;;;;;;5.00;4.57;;;;;;;34.26;38.71;100113.28;5069774;28;20207;-75
2022/09/06 06:26:03;;;;;;;5.18;4.78;;;;;;;34.54;37.87;100120.59;5069783;28;20235;-75
2022/09/06 06:28:30;;;;;;;7.20;4.50;;;;;;;34.44;38.00;100114.63;5070053;28;20273;-75
2022/09/06 06:30:58;;;;;;;4.78;4.28;;;;;;;34.77;37.66;100125.94;5069760;28;20199;-76
2022/09/06 06:33:25;;;;;;;5.38;4.00;;;;;;;35.09;36.69;100121.22;5070368;28;20281;-77
2022/09/06 06:35:59;;;;;;;5.93;4.88;;;;;;;35.20;36.17;100121.56;5069854;28;20290;-77
2022/09/06 06:38:31;;;;;;;11.23;4.47;;;;;;;35.25;36.14;100118.31;5071024;28;20231;-76
2022/09/06 06:40:58;;;;;;;5.00;4.65;;;;;;;35.25;35.80;100110.22;5070139;28;20633;-77
2022/09/06 06:43:25;;;;;;;4.80;4.40;;;;;;;35.21;36.09;100107.03;5070005;28;20195;-78
2022/09/06 06:45:52;;;;;;;3.80;3.50;;;;;;;35.72;35.16;100108.88;5069470;28;20206;-76
2022/09/06 06:48:20;;;;;;;4.82;3.97;;;;;;;35.80;35.04;100111.47;5069046;28;20226;-78
2022/09/06 06:50:47;;;;;;;5.05;4.55;;;;;;;35.63;35.19;100110.88;5069203;28;20199;-78
2022/09/06 06:53:14;;;;;;;6.25;4.10;;;;;;;35.47;35.98;100109.22;5068688;28;20200;-79
2022/09/06 06:55:47;;;;;;;6.18;4.28;;;;;;;35.37;35.36;100078.16;5067835;28;20575;-80
2022/09/06 06:58:14;;;;;;;4.47;4.07;;;;;;;35.87;34.94;100112.41;5069300;28;20203;-78
2022/09/06 07:00:41;;;;;;;4.43;3.65;;;;;;;36.30;34.03;100114.06;5068758;28;20199;-80
2022/09/06 07:03:08;;;;;;;4.68;4.03;;;;;;;36.90;32.97;100119.91;5069469;28;20210;-79
2022/09/06 07:05:37;;;;;;;4.20;3.15;;;;;;;35.71;34.86;100110.75;5069282;28;20206;-78
2022/09/06 07:08:05;;;;;;;4.18;3.58;;;;;;;35.75;34.40;100122.88;5068855;28;20705;-78
2022/09/06 07:10:32;;;;;;;4.88;3.75;;;;;;;35.75;34.61;100120.19;5067778;28;20203;-79
2022/09/06 07:12:59;;;;;;;4.85;3.38;;;;;;;35.79;34.46;100112.50;5069083;28;20203;-78
2022/09/06 07:15:27;;;;;;;4.10;3.65;;;;;;;35.64;34.98;100097.19;5068943;28;20235;-78
2022/09/06 07:17:55;;;;;;;5.53;4.07;;;;;;;35.77;34.74;100096.50;5068419;28;20272;-78
2022/09/06 07:20:22;;;;;;;4.30;3.47;;;;;;;35.44;35.17;100103.41;5068983;28;20249;-79
2022/09/06 07:23:00;;;;;;;4.22;3.92;;;;;;;35.29;35.40;100106.13;5069372;28;20199;-79
2022/09/06 07:25:27;;;;;;;4.32;4.10;;;;;;;35.06;35.49;100090.03;5069304;28;20202;-81
2022/09/06 07:28:00;;;;;;;4.63;4.30;;;;;;;34.88;35.93;100105.75;5069219;28;20228;-79
2022/09/06 07:30:27;;;;;;;7.82;3.97;;;;;;;34.99;35.92;100110.69;5069972;28;20250;-78
2022/09/06 07:32:54;;;;;;;9.32;4.10;;;;;;;35.36;35.24;100109.72;5069222;28;20651;-79
2022/09/06 07:35:21;;;;;;;4.57;4.30;;;;;;;35.85;34.49;100112.59;5069118;28;20192;-77
2022/09/06 07:37:56;;;;;;;4.32;3.90;;;;;;;36.75;32.87;100108.34;5069054;28;20211;-78
2022/09/06 07:40:25;;;;;;;5.35;3.80;;;;;;;37.71;31.23;100107.31;5069131;28;20612;-77
2022/09/06 07:42:52;;;;;;;4.18;3.78;;;;;;;37.08;31.35;100095.81;5068764;28;20253;-77
2022/09/06 07:45:19;;;;;;;7.75;3.50;;;;;;;37.61;30.59;100106.84;5069154;28;20197;-75
2022/09/06 07:47:53;;;;;;;4.07;3.88;;;;;;;38.16;30.71;100103.00;5068740;28;20423;-76
2022/09/06 07:50:20;;;;;;;7.95;3.75;;;;;;;37.07;31.70;100102.25;5069131;28;20558;-76
2022/09/06 07:52:47;;;;;;;5.28;3.65;;;;;;;37.08;31.71;100074.16;5069102;28;20217;-76
2022/09/06 07:55:14;;;;;;;3.65;3.28;;;;;;;37.69;30.52;100101.28;5069244;28;20584;-77
2022/09/06 07:57:50;;;;;;;5.53;3.38;;;;;;;38.08;30.17;100100.50;5069759;28;20195;-76
2022/09/06 08:00:22;;;;;;;4.25;3.92;;;;;;;38.53;29.44;100101.53;5069010;28;20205;-74
2022/09/06 08:02:50;;;;;;;5.90;4.07;;;;;;;38.48;29.65;100099.44;5068696;28;20203;-74
2022/09/06 08:05:16;;;;;;;7.38;4.80;;;;;;;38.36;29.72;100097.59;5068620;28;20205;-74
2022/09/06 08:07:43;;;;;;;4.30;3.40;;;;;;;38.01;29.52;100081.50;5070507;28;20203;-76
2022/09/06 08:10:10;;;;;;;4.15;3.78;;;;;;;38.97;28.79;100098.13;5072561;28;20261;-77
2022/09/06 08:12:37;;;;;;;8.50;4.30;;;;;;;38.53;29.11;100096.13;5072229;28;20195;-76
2022/09/06 08:15:07;;;;;;;6.95;4.65;;;;;;;37.99;29.24;100094.44;5072132;28;20571;-76
2022/09/06 08:17:34;;;;;;;6.78;4.25;;;;;;;38.15;29.74;100093.22;5072016;28;20287;-75
2022/09/06 08:20:02;;;;;;;4.95;3.35;;;;;;;38.31;29.74;100089.22;5071771;28;20192;-76
2022/09/06 08:22:32;;;;;;;3.90;3.53;;;;;;;38.82;28.64;100087.50;5072015;28;20191;-76
2022/09/06 08:24:59;;;;;;;5.78;3.55;;;;;;;39.26;27.75;100087.78;5071800;28;20240;-76
2022/09/06 08:27:26;;;;;;;8.60;6.97;;;;;;;39.85;27.11;100084.72;5071932;28;20195;-80
2022/09/06 08:29:53;;;;;;;4.13;3.85;;;;;;;39.20;28.14;100081.31;5071856;28;20702;-76
2022/09/06 08:32:21;;;;;;;6.63;3.83;;;;;;;38.72;28.21;100078.13;5071871;28;20217;-77
2022/09/06 08:34:48;;;;;;;6.78;3.97;;;;;;;39.19;27.41;100079.63;5071632;28;20200;-76
2022/09/06 08:37:15;;;;;;;4.00;3.58;;;;;;;38.59;28.22;100070.88;5071519;28;20230;-75
2022/09/06 08:39:42;;;;;;;4.60;3.60;;;;;;;38.43;28.66;100071.28;5071389;28;20213;-75
2022/09/06 08:42:11;;;;;;;5.55;3.90;;;;;;;36.98;30.01;100063.72;5071588;28;20299;-75
2022/09/06 08:44:41;;;;;;;5.35;3.65;;;;;;;36.78;30.61;100040.31;5071367;28;20207;-75
2022/09/06 08:47:10;;;;;;;4.40;4.00;;;;;;;35.94;31.64;100057.38;5071199;28;20195;-75
2022/09/06 08:49:41;;;;;;;5.53;4.82;;;;;;;34.70;33.09;100010.88;5071519;28;20602;-75
2022/09/06 08:52:23;;;;;;;4.63;4.22;;;;;;;33.98;35.88;100037.56;5071579;28;20673;-76
2022/09/06 08:54:58;;;;;;;5.90;3.63;;;;;;;33.63;36.62;100034.47;5072024;28;20655;-76
2022/09/06 08:57:41;;;;;;;4.20;3.90;;;;;;;34.06;35.61;100041.03;5071270;28;20648;-76
2022/09/06 09:00:11;;;;;;;5.93;3.80;;;;;;;35.24;33.73;100041.88;5071666;28;20865;-75
2022/09/06 09:02:44;;;;;;;6.50;3.90;;;;;;;35.84;32.33;100016.34;5071139;28;20206;-75
2022/09/06 09:05:22;;;;;;;3.70;3.40;;;;;;;36.66;30.82;100046.25;5071214;28;20199;-75
2022/09/06 09:08:00;;;;;;;4.03;3.70;;;;;;;36.61;31.22;100031.66;5070835;28;20286;-74
2022/09/06 09:10:29;;;;;;;4.68;3.83;;;;;;;36.38;31.70;100023.81;5071061;28;20223;-74
2022/09/06 09:12:57;;;;;;;6.65;4.32;;;;;;;35.14;33.57;100027.84;5071027;28;20206;-74
2022/09/06 09:15:24;;;;;;;5.63;4.97;;;;;;;35.20;33.94;100013.59;5071174;28;20656;-76
2022/09/06 09:17:53;;;;;;;6.80;4.00;;;;;;;34.21;35.61;100016.78;5070314;28;20206;-72
2022/09/06 09:20:22;;;;;;;4.55;4.13;;;;;;;34.67;34.76;100006.69;5070687;28;20192;-73
2022/09/06 09:22:49;;;;;;;5.82;3.80;;;;;;;34.77;34.58;100006.44;5070634;28;20199;-73
2022/09/06 09:25:21;;;;;;;5.28;3.83;;;;;;;34.03;36.00;100000.16;5070712;28;20202;-73
2022/09/06 09:27:56;;;;;;;6.80;4.20;;;;;;;33.26;37.28;99999.41;5070497;28;20196;-74
2022/09/06 09:30:23;;;;;;;8.10;4.45;;;;;;;31.81;39.87;99978.22;5070504;28;20496;-73
2022/09/06 09:32:51;;;;;;;6.35;3.85;;;;;;;31.32;42.00;99990.72;5070292;28;20202;-74
2022/09/06 09:35:32;;;;;;;4.40;4.00;;;;;;;31.63;41.58;99982.84;5070563;28;20287;-74
2022/09/06 09:38:06;;;;;;;5.93;3.80;;;;;;;33.32;37.82;99942.19;5070602;28;20302;-74
2022/09/06 09:40:38;;;;;;;4.22;3.80;;;;;;;35.81;33.07;99978.06;5070284;28;20199;-74
2022/09/06 09:43:13;;;;;;;5.72;4.30;;;;;;;35.56;32.29;99964.97;5070266;28;20207;-74
2022/09/06 09:45:40;;;;;;;6.35;3.72;;;;;;;35.68;32.86;99986.88;5070470;28;20206;-74
2022/09/06 09:48:20;;;;;;;5.13;3.92;;;;;;;34.34;34.03;99955.03;5070258;28;20196;-74
2022/09/06 09:50:48;;;;;;;4.43;3.83;;;;;;;32.66;37.58;99965.06;5070093;28;20191;-76
2022/09/06 09:53:18;;;;;;;4.47;4.07;;;;;;;30.73;42.07;99967.59;5070336;28;20291;-76
2022/09/06 09:55:46;;;;;;;4.60;4.18;;;;;;;29.84;44.47;99949.16;5070046;28;20206;-76
2022/09/06 09:58:24;;;;;;;5.90;4.57;;;;;;;29.46;46.02;99953.88;5070230;28;20196;-76
2022/09/06 10:01:10;;;;;;;4.65;4.25;;;;;;;28.94;46.39;99954.69;5070226;28;20287;-77
2022/09/06 10:03:37;;;;;;;4.90;4.57;;;;;;;28.22;48.50;99956.28;5070006;28;20210;-75
2022/09/06 10:06:10;;;;;;;4.28;3.72;;;;;;;27.94;48.49;99950.03;5070181;28;20199;-76
2022/09/06 10:08:42;;;;;;;4.53;4.30;;;;;;;27.53;50.90;99950.38;5069988;28;20579;-75
2022/09/06 10:11:12;;;;;;;4.75;3.97;;;;;;;27.28;52.07;99939.28;5069790;28;20195;-75
2022/09/06 10:13:41;;;;;;;4.90;4.40;;;;;;;27.06;52.82;99942.22;5063386;28;20682;-74
2022/09/06 10:16:09;;;;;;;6.47;4.30;;;;;;;26.97;53.58;99932.41;5049853;28;20651;-74
2022/09/06 10:18:38;;;;;;;5.00;4.60;;;;;;;27.01;53.42;99933.78;5049863;28;20200;-76
2022/09/06 10:21:09;;;;;;;6.75;4.70;;;;;;;26.83;54.51;99922.09;5049922;28;20617;-81
2022/09/06 10:24:02;;;;;;;4.85;4.40;;;;;;;26.93;54.55;99933.66;5050753;28;20283;-76
2022/09/06 10:26:37;;;;;;;8.48;5.15;;;;;;;26.79;54.75;99926.84;5065471;28;20191;-81
2022/09/06 10:29:06;;;;;;;8.63;5.13;;;;;;;26.76;55.67;99921.81;5069111;28;20219;-82
2022/09/06 10:31:51;;;;;;;8.23;5.45;;;;;;;26.63;58.14;99914.09;5070238;28;20199;-80
2022/09/06 10:34:48;;;;;;;5.80;5.32;;;;;;;26.75;56.53;99902.31;5067421;28;20280;-83
2022/09/06 10:37:35;;;;;;;5.22;4.72;;;;;;;26.52;55.17;99852.13;5070088;28;20686;-84
2022/09/06 10:40:06;;;;;;;5.38;4.70;;;;;;;26.77;55.52;99907.50;5071579;28;20192;-81
2022/09/06 10:42:42;;;;;;;5.68;5.07;;;;;;;26.72;55.50;99902.59;5071344;28;20209;-83
2022/09/06 10:45:29;;;;;;;5.05;4.75;;;;;;;26.49;55.92;99898.50;5071351;28;20257;-82
2022/09/06 10:48:00;;;;;;;7.10;4.82;;;;;;;26.32;56.25;99888.47;5069953;28;20295;-82
2022/09/06 10:51:17;;;;;;;;;;;;;;;;;;;;;
2022/09/06 10:54:03;;;;;;;5.45;4.32;;;;;;;26.54;54.12;99898.06;5069752;28;20207;-75
2022/09/06 10:56:37;;;;;;;4.95;4.65;;;;;;;26.40;54.86;99875.34;5065803;28;20215;-74
2022/09/06 10:59:16;;;;;;;4.40;4.10;;;;;;;26.56;54.72;99886.31;5069149;28;20195;-75
2022/09/06 11:01:55;;;;;;;4.68;4.38;;;;;;;26.49;54.86;99881.69;5069188;28;20210;-73
2022/09/06 11:04:29;;;;;;;4.18;3.83;;;;;;;26.50;53.95;99881.53;5089152;28;20202;-75
2022/09/06 11:06:59;;;;;;;4.43;4.03;;;;;;;26.45;53.75;99886.41;5089395;28;20199;-75
2022/09/06 11:09:32;;;;;;;4.20;3.97;;;;;;;26.35;53.64;99882.88;5088010;28;20225;-75
2022/09/06 11:12:06;;;;;;;3.78;3.47;;;;;;;26.41;53.14;99887.69;5089169;28;20199;-75
2022/09/06 11:14:34;;;;;;;4.10;3.72;;;;;;;26.44;53.01;99873.25;5089674;28;20195;-76
2022/09/06 11:17:07;;;;;;;5.03;3.55;;;;;;;26.21;53.80;99872.59;5088727;28;20234;-76
2022/09/06 11:19:43;;;;;;;5.03;3.83;;;;;;;26.22;53.35;99861.81;5089383;28;20192;-76
2022/09/06 11:22:32;;;;;;;3.95;3.65;;;;;;;26.61;53.40;99861.94;5089286;28;20198;-75
2022/09/06 11:25:43;;;;;;;3.72;3.10;;;;;;;26.69;50.37;99857.59;5089130;28;20195;-75
2022/09/06 11:28:15;;;;;;;5.50;3.90;;;;;;;26.69;49.91;99857.59;5059697;28;20671;-75
2022/09/06 11:30:46;;;;;;;5.68;3.92;;;;;;;26.59;50.87;99858.56;5088664;28;20219;-76
2022/09/06 11:33:23;;;;;;;5.20;3.53;;;;;;;26.72;49.80;99867.16;5089327;28;20693;-75
2022/09/06 11:35:50;;;;;;;3.78;3.35;;;;;;;26.77;49.32;99859.56;5089071;28;20592;-76
2022/09/06 11:38:23;;;;;;;13.40;8.10;;;;;;;26.63;49.53;99854.66;5088488;28;20210;-76
2022/09/06 11:41:00;;;;;;;8.93;3.53;;;;;;;26.64;50.23;99846.50;5089959;28;20201;-77